sensor_id;sensor_type;location;lat;lon;timestamp;pressure;altitude;pressure_sealevel;temperature;humidity
36190;BME280;22232;50.914;13.858;2022-09-03T00:01:49;97987.25;;;13.73;100.00
36190;BME280;22232;50.914;13.858;2022-09-03T00:04:25;97984.00;;;13.71;100.00
36190;BME280;22232;50.914;13.858;2022-09-03T00:07:05;97983.91;;;13.66;100.00
36190;BME280;22232;50.914;13.858;2022-09-03T00:09:48;97978.56;;;13.66;100.00
36190;BME280;22232;50.914;13.858;2022-09-03T00:12:39;97976.06;;;13.59;100.00
36190;BME280;22232;50.914;13.858;2022-09-03T00:15:09;97976.44;;;13.68;100.00
36190;BME280;22232;50.914;13.858;2022-09-03T00:17:46;97966.34;;;13.75;98.85
36190;BME280;22232;50.914;13.858;2022-09-03T00:20:32;97972.19;;;13.89;97.53
36190;BME280;22232;50.914;13.858;2022-09-03T00:23:04;97963.88;;;13.90;97.25
36190;BME280;22232;50.914;13.858;2022-09-03T00:25:39;97961.81;;;13.75;98.93
36190;BME280;22232;50.914;13.858;2022-09-03T00:28:26;97962.28;;;13.72;100.00
36190;BME280;22232;50.914;13.858;2022-09-03T00:33:48;97955.38;;;13.54;100.00
36190;BME280;22232;50.914;13.858;2022-09-03T00:36:22;97957.22;;;13.54;100.00
36190;BME280;22232;50.914;13.858;2022-09-03T00:38:52;97944.56;;;13.49;100.00
36190;BME280;22232;50.914;13.858;2022-09-03T00:54:21;97954.88;;;13.24;100.00
36190;BME280;22232;50.914;13.858;2022-09-03T01:00:31;97948.22;;;13.09;100.00
36190;BME280;22232;50.914;13.858;2022-09-03T01:03:21;97946.25;;;13.05;100.00
36190;BME280;22232;50.914;13.858;2022-09-03T01:11:33;97943.91;;;12.92;100.00
36190;BME280;22232;50.914;13.858;2022-09-03T01:25:10;97947.97;;;12.66;100.00
36190;BME280;22232;50.914;13.858;2022-09-03T01:30:24;97946.00;;;12.73;100.00
36190;BME280;22232;50.914;13.858;2022-09-03T01:33:21;97944.44;;;12.77;100.00
36190;BME280;22232;50.914;13.858;2022-09-03T01:36:00;97940.16;;;12.76;100.00
36190;BME280;22232;50.914;13.858;2022-09-03T01:53:43;97953.25;;;13.06;100.00
36190;BME280;22232;50.914;13.858;2022-09-03T01:56:24;97958.34;;;13.07;100.00
36190;BME280;22232;50.914;13.858;2022-09-03T01:59:10;97953.66;;;13.15;100.00
36190;BME280;22232;50.914;13.858;2022-09-03T02:02:09;97957.53;;;13.07;100.00
36190;BME280;22232;50.914;13.858;2022-09-03T02:07:37;97943.41;;;12.95;100.00
36190;BME280;22232;50.914;13.858;2022-09-03T02:10:10;97950.31;;;12.91;100.00
36190;BME280;22232;50.914;13.858;2022-09-03T02:12:40;97939.03;;;12.89;100.00
36190;BME280;22232;50.914;13.858;2022-09-03T02:15:13;97941.06;;;12.81;100.00
36190;BME280;22232;50.914;13.858;2022-09-03T02:17:43;97942.03;;;12.75;100.00
36190;BME280;22232;50.914;13.858;2022-09-03T02:20:16;97946.38;;;12.65;100.00
36190;BME280;22232;50.914;13.858;2022-09-03T02:22:47;97948.47;;;12.62;100.00
36190;BME280;22232;50.914;13.858;2022-09-03T02:25:16;97942.16;;;12.69;100.00
36190;BME280;22232;50.914;13.858;2022-09-03T02:27:44;97949.31;;;12.63;100.00
36190;BME280;22232;50.914;13.858;2022-09-03T02:30:12;97951.44;;;12.49;100.00
36190;BME280;22232;50.914;13.858;2022-09-03T02:32:40;97955.22;;;12.36;100.00
36190;BME280;22232;50.914;13.858;2022-09-03T02:35:08;97944.66;;;12.30;100.00
36190;BME280;22232;50.914;13.858;2022-09-03T02:37:36;97949.81;;;12.20;100.00
36190;BME280;22232;50.914;13.858;2022-09-03T02:40:04;97947.28;;;12.13;100.00
36190;BME280;22232;50.914;13.858;2022-09-03T02:42:35;97952.28;;;12.09;100.00
36190;BME280;22232;50.914;13.858;2022-09-03T02:45:30;97945.31;;;12.08;100.00
36190;BME280;22232;50.914;13.858;2022-09-03T02:47:59;97946.50;;;12.01;100.00
36190;BME280;22232;50.914;13.858;2022-09-03T02:50:26;97948.09;;;12.02;100.00
36190;BME280;22232;50.914;13.858;2022-09-03T02:52:54;97949.41;;;11.99;100.00
36190;BME280;22232;50.914;13.858;2022-09-03T02:55:22;97962.66;;;11.94;100.00
36190;BME280;22232;50.914;13.858;2022-09-03T02:57:50;97953.50;;;11.90;100.00
36190;BME280;22232;50.914;13.858;2022-09-03T03:00:17;97957.09;;;11.84;100.00
36190;BME280;22232;50.914;13.858;2022-09-03T03:02:45;97952.31;;;11.74;100.00
36190;BME280;22232;50.914;13.858;2022-09-03T03:05:20;97954.88;;;11.69;100.00
36190;BME280;22232;50.914;13.858;2022-09-03T03:07:51;97939.53;;;11.64;100.00
36190;BME280;22232;50.914;13.858;2022-09-03T03:10:18;97947.56;;;11.53;100.00
36190;BME280;22232;50.914;13.858;2022-09-03T03:12:46;97938.63;;;11.47;100.00
36190;BME280;22232;50.914;13.858;2022-09-03T03:15:13;97942.47;;;11.39;100.00
36190;BME280;22232;50.914;13.858;2022-09-03T03:17:41;97934.94;;;11.36;100.00
36190;BME280;22232;50.914;13.858;2022-09-03T03:20:09;97935.25;;;11.40;100.00
36190;BME280;22232;50.914;13.858;2022-09-03T03:22:37;97931.53;;;11.41;100.00
36190;BME280;22232;50.914;13.858;2022-09-03T03:25:05;97930.38;;;11.37;100.00
36190;BME280;22232;50.914;13.858;2022-09-03T03:27:33;97934.22;;;11.29;100.00
36190;BME280;22232;50.914;13.858;2022-09-03T03:30:03;97946.28;;;11.32;100.00
36190;BME280;22232;50.914;13.858;2022-09-03T03:32:31;97942.72;;;11.26;100.00
36190;BME280;22232;50.914;13.858;2022-09-03T03:34:59;97937.25;;;11.21;100.00
36190;BME280;22232;50.914;13.858;2022-09-03T03:37:26;97946.75;;;11.17;100.00
36190;BME280;22232;50.914;13.858;2022-09-03T03:39:54;97941.06;;;11.13;100.00
36190;BME280;22232;50.914;13.858;2022-09-03T03:42:21;97953.47;;;11.08;100.00
36190;BME280;22232;50.914;13.858;2022-09-03T03:44:49;97951.72;;;11.01;100.00
36190;BME280;22232;50.914;13.858;2022-09-03T03:47:17;97953.00;;;10.99;100.00
36190;BME280;22232;50.914;13.858;2022-09-03T03:49:44;97944.63;;;10.95;100.00
36190;BME280;22232;50.914;13.858;2022-09-03T03:52:12;97947.88;;;10.97;100.00
36190;BME280;22232;50.914;13.858;2022-09-03T03:54:39;97951.81;;;10.95;100.00
36190;BME280;22232;50.914;13.858;2022-09-03T03:57:07;97949.03;;;10.90;100.00
36190;BME280;22232;50.914;13.858;2022-09-03T03:59:35;97944.28;;;10.92;100.00
36190;BME280;22232;50.914;13.858;2022-09-03T04:02:02;97944.50;;;10.90;100.00
36190;BME280;22232;50.914;13.858;2022-09-03T04:04:30;97943.81;;;10.95;100.00
36190;BME280;22232;50.914;13.858;2022-09-03T04:06:58;97939.66;;;10.99;100.00
36190;BME280;22232;50.914;13.858;2022-09-03T04:09:25;97938.81;;;10.98;100.00
36190;BME280;22232;50.914;13.858;2022-09-03T04:11:53;97946.03;;;10.98;100.00
36190;BME280;22232;50.914;13.858;2022-09-03T04:14:23;97945.91;;;10.93;100.00
36190;BME280;22232;50.914;13.858;2022-09-03T04:16:52;97934.41;;;10.92;100.00
36190;BME280;22232;50.914;13.858;2022-09-03T04:19:21;97933.59;;;10.92;100.00
36190;BME280;22232;50.914;13.858;2022-09-03T04:21:48;97932.56;;;10.93;100.00
36190;BME280;22232;50.914;13.858;2022-09-03T04:24:16;97931.88;;;10.97;100.00
36190;BME280;22232;50.914;13.858;2022-09-03T04:26:43;97924.22;;;11.13;100.00
36190;BME280;22232;50.914;13.858;2022-09-03T04:29:11;97929.94;;;11.40;100.00
36190;BME280;22232;50.914;13.858;2022-09-03T04:31:39;97926.44;;;11.63;100.00
36190;BME280;22232;50.914;13.858;2022-09-03T04:34:26;97919.16;;;11.99;100.00
36190;BME280;22232;50.914;13.858;2022-09-03T04:36:54;97914.84;;;12.38;100.00
36190;BME280;22232;50.914;13.858;2022-09-03T04:39:24;97911.63;;;12.53;100.00
36190;BME280;22232;50.914;13.858;2022-09-03T04:41:51;97915.75;;;12.44;100.00
36190;BME280;22232;50.914;13.858;2022-09-03T04:44:19;97923.63;;;12.50;100.00
36190;BME280;22232;50.914;13.858;2022-09-03T04:46:47;97913.47;;;12.81;100.00
36190;BME280;22232;50.914;13.858;2022-09-03T04:49:14;97913.81;;;13.35;100.00
36190;BME280;22232;50.914;13.858;2022-09-03T04:51:42;97923.19;;;14.15;100.00
36190;BME280;22232;50.914;13.858;2022-09-03T04:54:10;97926.47;;;15.04;97.01
36190;BME280;22232;50.914;13.858;2022-09-03T04:56:38;97921.38;;;15.87;85.43
36190;BME280;22232;50.914;13.858;2022-09-03T04:59:07;97925.91;;;16.55;78.63
36190;BME280;22232;50.914;13.858;2022-09-03T05:01:37;97925.19;;;17.20;72.51
36190;BME280;22232;50.914;13.858;2022-09-03T05:04:06;97918.38;;;17.59;70.22
36190;BME280;22232;50.914;13.858;2022-09-03T05:06:35;97918.13;;;17.81;64.52
36190;BME280;22232;50.914;13.858;2022-09-03T05:09:04;97917.25;;;17.96;65.66
36190;BME280;22232;50.914;13.858;2022-09-03T05:11:32;97915.72;;;18.29;63.62
36190;BME280;22232;50.914;13.858;2022-09-03T05:14:00;97907.97;;;18.67;61.91
36190;BME280;22232;50.914;13.858;2022-09-03T05:16:28;97910.66;;;18.67;58.65
36190;BME280;22232;50.914;13.858;2022-09-03T05:18:58;97910.94;;;18.65;57.68
36190;BME280;22232;50.914;13.858;2022-09-03T05:21:28;97908.63;;;19.22;54.92
36190;BME280;22232;50.914;13.858;2022-09-03T05:23:58;97910.91;;;19.10;52.73
36190;BME280;22232;50.914;13.858;2022-09-03T05:26:28;97906.38;;;19.05;53.49
36190;BME280;22232;50.914;13.858;2022-09-03T05:28:58;97907.81;;;18.92;54.75
36190;BME280;22232;50.914;13.858;2022-09-03T05:31:28;97912.44;;;18.87;56.55
36190;BME280;22232;50.914;13.858;2022-09-03T05:34:00;97910.47;;;18.97;56.81
36190;BME280;22232;50.914;13.858;2022-09-03T05:36:33;97908.78;;;19.07;54.28
36190;BME280;22232;50.914;13.858;2022-09-03T05:39:03;97914.84;;;19.22;55.46
36190;BME280;22232;50.914;13.858;2022-09-03T05:41:31;97907.47;;;19.33;54.00
36190;BME280;22232;50.914;13.858;2022-09-03T05:44:00;97919.78;;;19.44;54.75
36190;BME280;22232;50.914;13.858;2022-09-03T05:46:30;97916.28;;;19.15;56.46
36190;BME280;22232;50.914;13.858;2022-09-03T05:49:04;97913.38;;;19.06;56.02
36190;BME280;22232;50.914;13.858;2022-09-03T05:51:34;97916.47;;;18.89;56.46
36190;BME280;22232;50.914;13.858;2022-09-03T05:54:03;97918.00;;;19.00;56.22
36190;BME280;22232;50.914;13.858;2022-09-03T05:56:32;97909.13;;;18.95;58.77
36190;BME280;22232;50.914;13.858;2022-09-03T05:59:02;97925.69;;;18.88;57.20
36190;BME280;22232;50.914;13.858;2022-09-03T06:01:40;97920.75;;;18.95;58.54
36190;BME280;22232;50.914;13.858;2022-09-03T06:04:18;97920.31;;;19.17;56.54
36190;BME280;22232;50.914;13.858;2022-09-03T06:06:46;97918.25;;;19.67;54.84
36190;BME280;22232;50.914;13.858;2022-09-03T06:09:16;97925.69;;;19.52;56.22
36190;BME280;22232;50.914;13.858;2022-09-03T06:11:45;97926.78;;;19.21;59.41
36190;BME280;22232;50.914;13.858;2022-09-03T06:14:16;97922.09;;;18.98;61.23
36190;BME280;22232;50.914;13.858;2022-09-03T06:16:45;97925.78;;;19.07;59.05
36190;BME280;22232;50.914;13.858;2022-09-03T06:19:17;97931.19;;;19.12;62.33
36190;BME280;22232;50.914;13.858;2022-09-03T06:21:45;97923.50;;;18.90;59.64
36190;BME280;22232;50.914;13.858;2022-09-03T06:24:15;97930.25;;;19.27;58.19
36190;BME280;22232;50.914;13.858;2022-09-03T06:26:43;97930.47;;;19.31;57.38
36190;BME280;22232;50.914;13.858;2022-09-03T06:29:11;97931.38;;;19.21;55.47
36190;BME280;22232;50.914;13.858;2022-09-03T06:31:39;97930.13;;;19.37;55.12
36190;BME280;22232;50.914;13.858;2022-09-03T06:34:07;97932.72;;;19.47;55.47
36190;BME280;22232;50.914;13.858;2022-09-03T06:36:35;97940.88;;;18.79;56.50
36190;BME280;22232;50.914;13.858;2022-09-03T06:39:03;97938.03;;;18.99;57.51
36190;BME280;22232;50.914;13.858;2022-09-03T06:41:31;97943.03;;;18.77;60.28
36190;BME280;22232;50.914;13.858;2022-09-03T06:44:04;97941.34;;;18.86;57.52
36190;BME280;22232;50.914;13.858;2022-09-03T06:46:34;97941.56;;;18.50;57.99
36190;BME280;22232;50.914;13.858;2022-09-03T06:49:05;97942.09;;;18.52;62.23
36190;BME280;22232;50.914;13.858;2022-09-03T06:51:35;97941.75;;;18.04;60.58
36190;BME280;22232;50.914;13.858;2022-09-03T06:54:06;97939.97;;;17.64;64.99
36190;BME280;22232;50.914;13.858;2022-09-03T06:56:35;97941.53;;;17.96;62.57
36190;BME280;22232;50.914;13.858;2022-09-03T06:59:12;97943.25;;;18.36;66.73
36190;BME280;22232;50.914;13.858;2022-09-03T07:01:41;97940.91;;;18.19;62.73
36190;BME280;22232;50.914;13.858;2022-09-03T07:04:13;97938.00;;;18.60;62.72
36190;BME280;22232;50.914;13.858;2022-09-03T07:06:46;97932.34;;;18.56;68.74
36190;BME280;22232;50.914;13.858;2022-09-03T07:09:14;97930.22;;;18.53;70.07
36190;BME280;22232;50.914;13.858;2022-09-03T07:11:45;97935.81;;;18.13;70.55
36190;BME280;22232;50.914;13.858;2022-09-03T07:14:17;97937.88;;;18.26;70.92
36190;BME280;22232;50.914;13.858;2022-09-03T07:16:46;97933.03;;;18.23;75.69
36190;BME280;22232;50.914;13.858;2022-09-03T07:19:14;97930.03;;;18.34;70.57
36190;BME280;22232;50.914;13.858;2022-09-03T07:21:42;97927.00;;;18.46;70.85
36190;BME280;22232;50.914;13.858;2022-09-03T07:24:17;97921.38;;;18.38;70.72
36190;BME280;22232;50.914;13.858;2022-09-03T07:26:44;97922.59;;;18.61;67.86
36190;BME280;22232;50.914;13.858;2022-09-03T07:29:16;97921.25;;;18.58;71.14
36190;BME280;22232;50.914;13.858;2022-09-03T07:31:47;97924.25;;;18.02;74.52
36190;BME280;22232;50.914;13.858;2022-09-03T07:34:19;97918.06;;;17.86;73.93
36190;BME280;22232;50.914;13.858;2022-09-03T07:36:51;97916.97;;;17.92;76.25
36190;BME280;22232;50.914;13.858;2022-09-03T07:39:20;97918.88;;;17.92;78.26
36190;BME280;22232;50.914;13.858;2022-09-03T07:41:47;97912.44;;;17.67;76.62
36190;BME280;22232;50.914;13.858;2022-09-03T07:44:17;97909.75;;;17.62;75.07
36190;BME280;22232;50.914;13.858;2022-09-03T07:46:47;97916.50;;;17.70;79.14
36190;BME280;22232;50.914;13.858;2022-09-03T07:49:19;97917.59;;;17.63;81.16
36190;BME280;22232;50.914;13.858;2022-09-03T07:51:48;97916.47;;;17.75;80.08
36190;BME280;22232;50.914;13.858;2022-09-03T07:54:19;97920.25;;;17.74;79.42
36190;BME280;22232;50.914;13.858;2022-09-03T07:56:48;97917.19;;;18.11;78.91
36190;BME280;22232;50.914;13.858;2022-09-03T07:59:15;97918.66;;;18.38;76.39
36190;BME280;22232;50.914;13.858;2022-09-03T08:01:43;97914.13;;;18.28;72.86
36190;BME280;22232;50.914;13.858;2022-09-03T08:04:11;97912.31;;;18.63;76.69
36190;BME280;22232;50.914;13.858;2022-09-03T08:06:38;97916.16;;;18.96;77.92
36190;BME280;22232;50.914;13.858;2022-09-03T08:09:08;97912.63;;;19.00;70.80
36190;BME280;22232;50.914;13.858;2022-09-03T08:11:40;97910.13;;;19.09;72.18
36190;BME280;22232;50.914;13.858;2022-09-03T08:14:10;97908.69;;;19.17;60.64
36190;BME280;22232;50.914;13.858;2022-09-03T08:16:43;97915.75;;;18.78;62.76
36190;BME280;22232;50.914;13.858;2022-09-03T08:19:14;97919.53;;;18.77;65.65
36190;BME280;22232;50.914;13.858;2022-09-03T08:21:41;97913.50;;;18.91;69.33
36190;BME280;22232;50.914;13.858;2022-09-03T08:24:10;97918.25;;;19.04;68.64
36190;BME280;22232;50.914;13.858;2022-09-03T08:26:39;97921.56;;;18.56;66.84
36190;BME280;22232;50.914;13.858;2022-09-03T08:29:18;97918.66;;;18.38;61.47
36190;BME280;22232;50.914;13.858;2022-09-03T08:31:46;97918.78;;;18.17;70.29
36190;BME280;22232;50.914;13.858;2022-09-03T08:34:14;97923.81;;;18.34;65.68
36190;BME280;22232;50.914;13.858;2022-09-03T08:36:45;97920.69;;;18.61;60.71
36190;BME280;22232;50.914;13.858;2022-09-03T08:39:13;97909.63;;;19.02;57.36
36190;BME280;22232;50.914;13.858;2022-09-03T08:44:43;97911.97;;;18.30;60.12
36190;BME280;22232;50.914;13.858;2022-09-03T08:47:36;97909.97;;;18.51;68.50
36190;BME280;22232;50.914;13.858;2022-09-03T08:50:26;97906.75;;;18.88;67.73
36190;BME280;22232;50.914;13.858;2022-09-03T08:53:17;97905.66;;;19.53;55.99
36190;BME280;22232;50.914;13.858;2022-09-03T08:56:07;97912.09;;;19.57;53.21
36190;BME280;22232;50.914;13.858;2022-09-03T08:58:36;97905.81;;;19.90;51.17
36190;BME280;22232;50.914;13.858;2022-09-03T09:15:37;97886.84;;;20.33;48.79
36190;BME280;22232;50.914;13.858;2022-09-03T09:19:36;97907.19;;;20.31;51.12
36190;BME280;22232;50.914;13.858;2022-09-03T09:21:45;97903.69;;;19.87;50.32
36190;BME280;22232;50.914;13.858;2022-09-03T09:24:22;97895.78;;;19.91;49.77
36190;BME280;22232;50.914;13.858;2022-09-03T09:27:00;97904.00;;;20.05;51.29
36190;BME280;22232;50.914;13.858;2022-09-03T09:29:35;97892.53;;;20.13;49.57
36190;BME280;22232;50.914;13.858;2022-09-03T09:32:03;97896.72;;;20.24;50.99
36190;BME280;22232;50.914;13.858;2022-09-03T09:34:37;97890.78;;;20.03;50.24
36190;BME280;22232;50.914;13.858;2022-09-03T09:37:08;97876.03;;;20.33;51.22
36190;BME280;22232;50.914;13.858;2022-09-03T09:39:36;97884.78;;;20.25;49.33
36190;BME280;22232;50.914;13.858;2022-09-03T09:42:07;97879.22;;;20.35;50.42
36190;BME280;22232;50.914;13.858;2022-09-03T09:44:41;97877.19;;;20.65;49.21
36190;BME280;22232;50.914;13.858;2022-09-03T09:47:12;97873.28;;;20.57;48.90
36190;BME280;22232;50.914;13.858;2022-09-03T09:52:18;97871.34;;;20.58;48.88
36190;BME280;22232;50.914;13.858;2022-09-03T09:54:48;97870.44;;;20.44;50.20
36190;BME280;22232;50.914;13.858;2022-09-03T09:57:20;97880.22;;;20.21;49.82
36190;BME280;22232;50.914;13.858;2022-09-03T09:59:49;97883.81;;;20.16;49.64
36190;BME280;22232;50.914;13.858;2022-09-03T10:02:24;97882.34;;;20.05;52.32
36190;BME280;22232;50.914;13.858;2022-09-03T10:05:00;97870.81;;;20.37;52.69
36190;BME280;22232;50.914;13.858;2022-09-03T10:07:30;97865.53;;;20.27;50.15
36190;BME280;22232;50.914;13.858;2022-09-03T10:10:20;97877.69;;;20.29;49.64
36190;BME280;22232;50.914;13.858;2022-09-03T10:21:12;97870.84;;;19.94;51.21
36190;BME280;22232;50.914;13.858;2022-09-03T10:26:47;97852.06;;;20.22;51.78
36190;BME280;22232;50.914;13.858;2022-09-03T10:29:18;97857.56;;;20.16;55.08
36190;BME280;22232;50.914;13.858;2022-09-03T10:34:41;97860.72;;;20.43;51.01
36190;BME280;22232;50.914;13.858;2022-09-03T10:37:21;97856.97;;;20.20;52.04
36190;BME280;22232;50.914;13.858;2022-09-03T10:40:17;97849.34;;;20.40;53.80
36190;BME280;22232;50.914;13.858;2022-09-03T10:45:41;97854.63;;;21.02;50.93
36190;BME280;22232;50.914;13.858;2022-09-03T10:48:27;97847.03;;;21.04;49.03
36190;BME280;22232;50.914;13.858;2022-09-03T10:51:23;97852.88;;;21.25;49.62
36190;BME280;22232;50.914;13.858;2022-09-03T10:54:08;97854.22;;;21.42;46.63
36190;BME280;22232;50.914;13.858;2022-09-03T10:56:55;97840.47;;;21.38;49.45
36190;BME280;22232;50.914;13.858;2022-09-03T10:59:49;97842.00;;;21.12;47.74
36190;BME280;22232;50.914;13.858;2022-09-03T11:05:14;97833.88;;;21.58;51.95
36190;BME280;22232;50.914;13.858;2022-09-03T11:07:49;97824.97;;;21.94;48.31
36190;BME280;22232;50.914;13.858;2022-09-03T11:10:34;97831.41;;;22.48;47.20
36190;BME280;22232;50.914;13.858;2022-09-03T11:13:21;97832.53;;;22.47;46.67
36190;BME280;22232;50.914;13.858;2022-09-03T11:15:55;97825.53;;;22.55;46.08
36190;BME280;22232;50.914;13.858;2022-09-03T11:18:30;97823.38;;;22.43;45.61
36190;BME280;22232;50.914;13.858;2022-09-03T11:21:04;97825.38;;;22.74;47.63
36190;BME280;22232;50.914;13.858;2022-09-03T11:23:46;97824.50;;;22.87;46.67
36190;BME280;22232;50.914;13.858;2022-09-03T11:26:22;97828.34;;;22.86;44.54
36190;BME280;22232;50.914;13.858;2022-09-03T11:29:09;97820.91;;;22.78;45.49
36190;BME280;22232;50.914;13.858;2022-09-03T11:31:57;97817.63;;;22.22;47.13
36190;BME280;22232;50.914;13.858;2022-09-03T11:34:43;97826.13;;;22.15;46.80
36190;BME280;22232;50.914;13.858;2022-09-03T11:37:19;97828.81;;;21.65;48.18
36190;BME280;22232;50.914;13.858;2022-09-03T11:40:19;97819.28;;;21.68;47.38
36190;BME280;22232;50.914;13.858;2022-09-03T11:42:48;97821.16;;;21.81;46.58
36190;BME280;22232;50.914;13.858;2022-09-03T11:45:34;97816.53;;;22.68;47.18
36190;BME280;22232;50.914;13.858;2022-09-03T11:48:27;97816.34;;;22.87;46.55
36190;BME280;22232;50.914;13.858;2022-09-03T11:50:59;97823.56;;;23.14;46.03
36190;BME280;22232;50.914;13.858;2022-09-03T11:53:33;97821.97;;;22.68;44.16
36190;BME280;22232;50.914;13.858;2022-09-03T11:58:37;97824.59;;;21.87;48.01
36190;BME280;22232;50.914;13.858;2022-09-03T12:01:09;97817.88;;;21.70;46.54
36190;BME280;22232;50.914;13.858;2022-09-03T12:03:42;97817.75;;;21.48;46.29
36190;BME280;22232;50.914;13.858;2022-09-03T12:18:05;97820.94;;;22.05;47.55
36190;BME280;22232;50.914;13.858;2022-09-03T12:20:47;97826.81;;;22.35;46.76
36190;BME280;22232;50.914;13.858;2022-09-03T12:26:08;97817.78;;;22.26;47.26
36190;BME280;22232;50.914;13.858;2022-09-03T12:28:43;97813.16;;;22.12;47.56
36190;BME280;22232;50.914;13.858;2022-09-03T12:33:52;97814.94;;;21.39;49.40
36190;BME280;22232;50.914;13.858;2022-09-03T12:36:21;97808.06;;;21.97;48.37
36190;BME280;22232;50.914;13.858;2022-09-03T12:38:50;97804.59;;;22.33;49.20
36190;BME280;22232;50.914;13.858;2022-09-03T12:42:06;97803.06;;;22.63;49.53
36190;BME280;22232;50.914;13.858;2022-09-03T12:50:03;97809.38;;;23.26;47.77
36190;BME280;22232;50.914;13.858;2022-09-03T12:52:35;97798.44;;;23.57;45.50
36190;BME280;22232;50.914;13.858;2022-09-03T12:55:13;97807.63;;;23.70;44.11
36190;BME280;22232;50.914;13.858;2022-09-03T12:58:00;97792.69;;;23.58;42.82
36190;BME280;22232;50.914;13.858;2022-09-03T13:00:32;97799.94;;;23.72;42.90
36190;BME280;22232;50.914;13.858;2022-09-03T13:05:36;97788.16;;;23.45;45.22
36190;BME280;22232;50.914;13.858;2022-09-03T13:08:14;97794.56;;;23.09;45.31
36190;BME280;22232;50.914;13.858;2022-09-03T13:10:52;97785.38;;;23.36;46.58
36190;BME280;22232;50.914;13.858;2022-09-03T13:13:32;97780.41;;;23.70;44.96
36190;BME280;22232;50.914;13.858;2022-09-03T13:24:37;97785.16;;;23.55;44.39
36190;BME280;22232;50.914;13.858;2022-09-03T13:27:14;97780.78;;;23.46;43.16
36190;BME280;22232;50.914;13.858;2022-09-03T13:30:07;97779.00;;;23.41;44.08
36190;BME280;22232;50.914;13.858;2022-09-03T13:36:14;97784.00;;;23.08;44.19
36190;BME280;22232;50.914;13.858;2022-09-03T13:39:01;97778.16;;;22.70;46.17
36190;BME280;22232;50.914;13.858;2022-09-03T13:42:12;97777.91;;;22.80;45.16
36190;BME280;22232;50.914;13.858;2022-09-03T13:47:55;97780.34;;;22.59;45.76
36190;BME280;22232;50.914;13.858;2022-09-03T13:50:50;97773.09;;;22.54;44.53
36190;BME280;22232;50.914;13.858;2022-09-03T14:02:06;97765.50;;;22.20;45.36
36190;BME280;22232;50.914;13.858;2022-09-03T14:04:46;97766.16;;;22.48;43.65
36190;BME280;22232;50.914;13.858;2022-09-03T14:07:43;97764.03;;;22.59;46.31
36190;BME280;22232;50.914;13.858;2022-09-03T14:12:53;97763.44;;;21.89;47.25
36190;BME280;22232;50.914;13.858;2022-09-03T14:15:32;97764.88;;;21.73;46.42
36190;BME280;22232;50.914;13.858;2022-09-03T14:18:14;97752.88;;;21.88;46.29
36190;BME280;22232;50.914;13.858;2022-09-03T14:20:55;97746.22;;;21.94;46.55
36190;BME280;22232;50.914;13.858;2022-09-03T14:25:54;97754.25;;;22.35;46.62
36190;BME280;22232;50.914;13.858;2022-09-03T14:31:22;97752.41;;;22.44;46.56
36190;BME280;22232;50.914;13.858;2022-09-03T14:34:15;97756.25;;;22.43;44.83
36190;BME280;22232;50.914;13.858;2022-09-03T14:36:56;97761.50;;;22.94;45.47
36190;BME280;22232;50.914;13.858;2022-09-03T14:43:17;97758.31;;;22.69;47.55
36190;BME280;22232;50.914;13.858;2022-09-03T14:57:47;97761.97;;;21.69;46.78
36190;BME280;22232;50.914;13.858;2022-09-03T15:06:03;97761.09;;;21.46;48.77
36190;BME280;22232;50.914;13.858;2022-09-03T15:11:31;97755.44;;;21.70;48.70
36190;BME280;22232;50.914;13.858;2022-09-03T15:14:12;97755.16;;;21.44;48.30
36190;BME280;22232;50.914;13.858;2022-09-03T15:19:46;97755.31;;;21.20;49.57
36190;BME280;22232;50.914;13.858;2022-09-03T15:25:29;97752.81;;;21.10;50.84
36190;BME280;22232;50.914;13.858;2022-09-03T15:34:02;97757.44;;;21.10;50.68
36190;BME280;22232;50.914;13.858;2022-09-03T15:36:41;97755.63;;;21.05;51.82
36190;BME280;22232;50.914;13.858;2022-09-03T15:39:19;97756.22;;;21.02;52.62
36190;BME280;22232;50.914;13.858;2022-09-03T15:42:39;97752.88;;;20.77;53.15
36190;BME280;22232;50.914;13.858;2022-09-03T15:44:51;97757.34;;;20.54;52.71
36190;BME280;22232;50.914;13.858;2022-09-03T15:47:40;97750.22;;;20.58;53.40
36190;BME280;22232;50.914;13.858;2022-09-03T15:50:24;97757.06;;;20.51;54.88
36190;BME280;22232;50.914;13.858;2022-09-03T15:53:26;97758.63;;;20.57;53.99
36190;BME280;22232;50.914;13.858;2022-09-03T16:01:33;97764.66;;;20.35;53.87
36190;BME280;22232;50.914;13.858;2022-09-03T16:04:21;97760.34;;;20.34;52.76
36190;BME280;22232;50.914;13.858;2022-09-03T16:15:42;97762.97;;;20.20;54.77
36190;BME280;22232;50.914;13.858;2022-09-03T16:21:10;97757.94;;;20.13;55.52
36190;BME280;22232;50.914;13.858;2022-09-03T16:24:27;97757.53;;;20.06;55.39
36190;BME280;22232;50.914;13.858;2022-09-03T16:27:22;97764.75;;;20.11;56.24
36190;BME280;22232;50.914;13.858;2022-09-03T16:30:08;97757.53;;;19.87;56.09
36190;BME280;22232;50.914;13.858;2022-09-03T16:38:23;97751.81;;;19.89;57.06
36190;BME280;22232;50.914;13.858;2022-09-03T16:46:43;97775.13;;;19.42;58.97
36190;BME280;22232;50.914;13.858;2022-09-03T16:49:50;97766.88;;;19.28;60.07
36190;BME280;22232;50.914;13.858;2022-09-03T16:55:51;97757.97;;;19.52;57.59
36190;BME280;22232;50.914;13.858;2022-09-03T16:59:00;97759.50;;;19.58;57.22
36190;BME280;22232;50.914;13.858;2022-09-03T17:06:58;97745.28;;;19.47;57.47
36190;BME280;22232;50.914;13.858;2022-09-03T17:15:29;97749.41;;;19.20;58.79
36190;BME280;22232;50.914;13.858;2022-09-03T17:29:59;97767.75;;;18.99;60.48
36190;BME280;22232;50.914;13.858;2022-09-03T17:35:09;97777.72;;;18.70;65.12
36190;BME280;22232;50.914;13.858;2022-09-03T17:40:30;97774.25;;;18.64;65.10